Time;durP1;ratioP1;P1;durP2;ratioP2;P2;SDS_P1;SDS_P2;PMS_P1;PMS_P2;Temp;Humidity;BMP_temperature;BMP_pressure;BME280_temperature;BME280_humidity;BME280_pressure;Samples;Min_cycle;Max_cycle;Signal;HPM_P1;HPM_P2
2022/07/02 00:00:59;;;;;;;19.05;5.68;;;24.40;1.00;;;;;;4974336;23;20055;-44
2022/07/02 00:03:31;;;;;;;15.05;5.68;;;24.40;1.00;;;;;;4955516;28;20045;-44
2022/07/02 00:05:59;;;;;;;9.13;4.75;;;24.40;1.00;;;;;;4956100;28;20023;-48
2022/07/02 00:08:27;;;;;;;15.07;5.72;;;24.40;1.00;;;;;;4956014;28;20034;-46
2022/07/02 00:10:54;;;;;;;19.55;5.63;;;24.30;1.00;;;;;;4956015;28;20025;-44
2022/07/02 00:13:22;;;;;;;14.82;5.10;;;24.40;1.00;;;;;;4955731;28;20038;-44
2022/07/02 00:15:48;;;;;;;10.82;5.28;;;24.40;1.00;;;;;;4955689;28;20019;-44
2022/07/02 00:18:15;;;;;;;16.27;5.72;;;24.40;1.00;;;;;;4955723;28;20551;-44
2022/07/02 00:20:44;;;;;;;17.40;5.70;;;24.40;1.00;;;;;;4955614;28;20101;-44
2022/07/02 00:23:10;;;;;;;19.30;6.05;;;24.40;1.00;;;;;;4955600;28;20094;-44
2022/07/02 00:25:42;;;;;;;12.63;5.57;;;24.50;1.00;;;;;;4955593;28;20026;-43
2022/07/02 00:28:11;;;;;;;19.35;6.05;;;24.50;1.00;;;;;;4955681;28;20118;-44
2022/07/02 00:30:41;;;;;;;19.40;5.82;;;24.50;1.00;;;;;;4955741;28;20058;-44
2022/07/02 00:33:11;;;;;;;22.88;7.13;;;24.50;1.00;;;;;;4955717;28;20525;-44
2022/07/02 00:35:38;;;;;;;23.65;5.88;;;24.50;1.00;;;;;;4955562;28;20031;-44
2022/07/02 00:38:04;;;;;;;14.55;5.22;;;24.50;1.00;;;;;;4955250;28;20031;-44
2022/07/02 00:40:31;;;;;;;21.58;6.00;;;24.50;1.00;;;;;;4955424;28;20106;-47
2022/07/02 00:42:58;;;;;;;17.92;6.07;;;24.50;1.00;;;;;;4955267;28;20036;-44
2022/07/02 00:45:26;;;;;;;19.02;6.80;;;24.50;1.00;;;;;;4955160;28;20078;-44
2022/07/02 00:47:56;;;;;;;21.33;6.13;;;24.40;1.00;;;;;;4970000;28;20547;-44
2022/07/02 00:50:22;;;;;;;16.90;5.57;;;24.40;1.00;;;;;;4955084;28;20393;-44
2022/07/02 00:52:49;;;;;;;20.95;6.43;;;24.40;1.00;;;;;;4955095;28;20042;-44
2022/07/02 00:55:15;;;;;;;14.15;5.82;;;24.50;1.00;;;;;;4954961;28;20421;-44
2022/07/02 00:57:40;;;;;;;13.32;5.10;;;24.50;1.00;;;;;;4955133;28;20035;-45
2022/07/02 01:00:07;;;;;;;13.10;5.70;;;24.40;1.00;;;;;;4955463;29;20457;-44
2022/07/02 01:02:37;;;;;;;16.57;6.00;;;24.40;1.00;;;;;;4954798;29;20055;-44
2022/07/02 01:05:03;;;;;;;22.23;6.47;;;24.30;1.00;;;;;;4954880;28;20501;-45
2022/07/02 01:07:30;;;;;;;23.55;7.30;;;24.30;1.00;;;;;;4954888;29;20062;-44
2022/07/02 01:10:17;;;;;;;20.10;5.68;;;24.30;1.00;;;;;;4954655;28;20031;-44
2022/07/02 01:12:45;;;;;;;14.77;5.28;;;24.30;1.00;;;;;;4954639;28;20110;-45
2022/07/02 01:15:12;;;;;;;22.13;6.65;;;24.30;1.00;;;;;;4954583;28;20027;-45
2022/07/02 01:17:37;;;;;;;16.92;6.20;;;24.30;1.00;;;;;;4954720;28;20039;-45
2022/07/02 01:20:04;;;;;;;19.52;6.03;;;24.30;1.00;;;;;;4954512;28;20535;-45
2022/07/02 01:22:40;;;;;;;17.92;5.47;;;24.20;1.00;;;;;;4954433;29;20501;-45
2022/07/02 01:25:08;;;;;;;17.70;5.90;;;24.20;1.00;;;;;;4954511;28;20039;-45
2022/07/02 01:27:34;;;;;;;12.25;5.75;;;24.20;1.00;;;;;;4954458;28;20070;-45
2022/07/02 01:30:00;;;;;;;20.50;6.45;;;24.20;1.00;;;;;;4954383;28;20051;-45
2022/07/02 01:32:26;;;;;;;19.33;5.90;;;24.30;1.00;;;;;;4954336;29;20063;-45
2022/07/02 01:35:01;;;;;;;19.58;6.47;;;24.30;1.00;;;;;;4954354;29;20035;-45
2022/07/02 01:37:27;;;;;;;15.02;6.32;;;24.20;1.00;;;;;;4954273;28;20027;-45
2022/07/02 01:39:53;;;;;;;16.77;5.75;;;24.20;1.00;;;;;;4954361;28;20031;-44
2022/07/02 01:42:18;;;;;;;24.85;6.28;;;24.20;1.00;;;;;;4954190;28;20038;-44
2022/07/02 01:44:45;;;;;;;16.13;5.68;;;24.20;1.00;;;;;;4954020;28;20070;-44
2022/07/02 01:47:12;;;;;;;23.95;6.75;;;24.20;1.00;;;;;;4954514;28;20075;-45
2022/07/02 01:49:40;;;;;;;17.92;6.18;;;24.20;1.00;;;;;;4954286;28;20035;-45
2022/07/02 01:52:07;;;;;;;14.50;6.57;;;24.30;1.00;;;;;;4953909;28;20468;-44
2022/07/02 01:54:33;;;;;;;;;;;24.20;1.00;;;;;;4954353;28;20078;-44
2022/07/02 01:57:02;;;;;;;10.15;5.45;;;24.20;1.00;;;;;;4953899;28;19906;-44
2022/07/02 01:59:28;;;;;;;17.70;5.97;;;24.20;1.00;;;;;;4954432;28;20078;-44
2022/07/02 02:01:54;;;;;;;16.20;6.55;;;24.20;1.00;;;;;;4953665;29;20027;-44
2022/07/02 02:04:20;;;;;;;15.88;6.07;;;24.20;1.00;;;;;;4953939;28;20110;-44
2022/07/02 02:06:46;;;;;;;20.55;7.03;;;24.20;1.00;;;;;;4953843;29;20029;-44
2022/07/02 02:09:11;;;;;;;14.23;5.38;;;24.20;1.00;;;;;;4953793;28;20035;-44
2022/07/02 02:11:37;;;;;;;19.20;7.60;;;24.20;1.00;;;;;;4953754;29;20034;-45
2022/07/02 02:14:03;;;;;;;14.70;7.25;;;24.20;1.00;;;;;;4953663;28;20028;-45
2022/07/02 02:16:30;;;;;;;15.02;6.18;;;24.20;1.00;;;;;;4968425;28;20031;-45
2022/07/02 02:18:57;;;;;;;23.17;6.57;;;24.20;1.00;;;;;;4953633;28;20133;-45
2022/07/02 02:21:25;;;;;;;17.27;6.20;;;24.20;1.00;;;;;;4953599;28;20031;-44
2022/07/02 02:23:51;;;;;;;22.17;6.78;;;24.10;1.00;;;;;;4953502;28;20035;-45
2022/07/02 02:26:17;;;;;;;16.05;6.82;;;24.20;1.00;;;;;;4952904;28;20118;-45
2022/07/02 02:28:43;;;;;;;19.88;6.60;;;24.20;1.00;;;;;;4953567;28;20114;-45
2022/07/02 02:31:08;;;;;;;13.57;6.90;;;24.20;1.00;;;;;;4953567;29;20075;-45
2022/07/02 02:33:34;;;;;;;18.30;5.93;;;24.20;1.00;;;;;;4953623;29;20034;-45
2022/07/02 02:36:00;;;;;;;11.98;6.28;;;24.20;1.00;;;;;;4953188;28;20131;-44
2022/07/02 02:38:26;;;;;;;16.95;6.03;;;24.20;1.00;;;;;;4953157;28;20121;-45
2022/07/02 02:40:52;;;;;;;14.18;6.28;;;24.30;1.00;;;;;;4953099;28;20116;-45
2022/07/02 02:43:18;;;;;;;16.83;6.10;;;24.30;1.00;;;;;;4952986;28;20043;-45
2022/07/02 02:45:44;;;;;;;22.23;5.55;;;24.30;1.00;;;;;;4953270;28;20085;-45
2022/07/02 02:48:10;;;;;;;8.95;5.00;;;24.30;1.00;;;;;;4953039;29;20031;-45
2022/07/02 02:50:36;;;;;;;22.00;5.45;;;24.30;1.00;;;;;;4953009;28;20462;-46
2022/07/02 02:53:02;;;;;;;19.17;6.28;;;24.30;1.00;;;;;;4953278;28;20031;-46
2022/07/02 02:55:28;;;;;;;17.52;5.45;;;24.40;1.00;;;;;;4953094;28;20118;-45
2022/07/02 02:57:54;;;;;;;13.07;5.15;;;24.40;1.00;;;;;;4953161;28;20162;-45
2022/07/02 03:00:20;;;;;;;15.90;5.07;;;24.50;99.90;;;;;;4953532;28;20460;-45
2022/07/02 03:02:47;;;;;;;17.42;5.07;;;24.50;99.90;;;;;;4953184;28;20397;-45
2022/07/02 03:05:12;;;;;;;13.95;5.60;;;24.40;99.90;;;;;;4953189;29;20031;-45
2022/07/02 03:07:39;;;;;;;13.30;5.38;;;24.50;99.90;;;;;;4953018;29;20363;-45
2022/07/02 03:10:05;;;;;;;12.43;5.30;;;24.50;99.90;;;;;;4952881;28;20027;-45
2022/07/02 03:12:31;;;;;;;17.55;5.47;;;24.50;99.90;;;;;;4953065;29;20520;-45
2022/07/02 03:14:57;;;;;;;18.45;6.05;;;24.50;99.90;;;;;;4953045;28;20032;-45
2022/07/02 03:17:23;;;;;;;15.13;5.10;;;24.50;99.90;;;;;;4952848;29;20027;-45
2022/07/02 03:19:51;;;;;;;16.35;5.40;;;24.50;99.90;;;;;;4952953;29;20378;-45
2022/07/02 03:22:17;;;;;;;26.15;5.70;;;24.50;99.90;;;;;;4953007;29;20090;-45
2022/07/02 03:24:42;;;;;;;16.83;5.35;;;24.50;99.90;;;;;;4952760;28;20038;-45
2022/07/02 03:27:08;;;;;;;15.40;5.72;;;24.50;99.90;;;;;;4952871;29;20102;-45
2022/07/02 03:29:34;;;;;;;21.05;5.57;;;24.50;99.90;;;;;;4952773;28;20055;-45
2022/07/02 03:32:00;;;;;;;17.90;5.07;;;24.50;99.90;;;;;;4952800;28;20058;-45
2022/07/02 03:34:26;;;;;;;15.05;5.18;;;24.50;99.90;;;;;;4952778;28;20462;-45
2022/07/02 03:36:51;;;;;;;15.18;5.93;;;24.50;99.90;;;;;;4953435;28;20023;-45
2022/07/02 03:39:17;;;;;;;21.15;5.78;;;24.50;99.90;;;;;;4956523;29;20481;-45
2022/07/02 03:41:43;;;;;;;13.95;4.90;;;24.50;99.90;;;;;;4956354;28;20019;-45
2022/07/02 03:44:09;;;;;;;15.63;5.35;;;24.50;99.90;;;;;;4956326;28;20051;-45
2022/07/02 03:46:34;;;;;;;22.33;5.10;;;24.50;99.90;;;;;;4956407;28;20031;-45
2022/07/02 03:49:00;;;;;;;24.70;5.88;;;24.50;99.90;;;;;;4956415;28;20055;-45
2022/07/02 03:51:26;;;;;;;12.07;5.32;;;24.50;99.90;;;;;;4956091;28;20050;-45
2022/07/02 03:53:52;;;;;;;18.77;6.43;;;24.40;99.90;;;;;;4956151;29;20062;-45
2022/07/02 03:56:17;;;;;;;19.70;5.30;;;24.40;99.90;;;;;;4956191;28;20038;-45
2022/07/02 03:58:43;;;;;;;14.18;4.82;;;24.40;99.90;;;;;;4956066;28;20023;-45
2022/07/02 04:01:09;;;;;;;13.60;5.22;;;24.40;99.90;;;;;;4956834;29;20051;-45
2022/07/02 04:03:35;;;;;;;11.73;4.85;;;24.40;99.90;;;;;;4955821;29;20043;-45
2022/07/02 04:06:01;;;;;;;25.38;5.88;;;24.30;99.90;;;;;;4955760;29;20027;-45
2022/07/02 04:08:27;;;;;;;21.83;5.88;;;24.30;1.40;;;;;;4955759;28;20034;-45
2022/07/02 04:10:55;;;;;;;22.10;5.40;;;24.30;99.90;;;;;;4955739;29;20031;-45
2022/07/02 04:13:21;;;;;;;12.40;4.95;;;24.40;99.90;;;;;;4955732;29;20038;-45
2022/07/02 04:15:46;;;;;;;18.10;5.18;;;24.50;99.90;;;;;;4955788;28;20027;-46
2022/07/02 04:18:12;;;;;;;11.40;4.28;;;24.50;99.90;;;;;;4955653;29;20473;-45
2022/07/02 04:20:38;;;;;;;20.60;5.53;;;24.60;99.90;;;;;;4955571;28;20036;-45
2022/07/02 04:23:04;;;;;;;13.25;4.78;;;24.60;1.40;;;;;;4955677;28;20032;-45
2022/07/02 04:25:30;;;;;;;12.15;5.45;;;24.60;99.90;;;;;;4955486;29;20030;-45
2022/07/02 04:27:56;;;;;;;14.95;5.28;;;24.60;99.90;;;;;;4955429;29;20019;-45
2022/07/02 04:30:22;;;;;;;21.38;5.65;;;24.70;99.90;;;;;;4955544;29;20082;-45
2022/07/02 04:32:47;;;;;;;18.05;5.22;;;24.70;99.90;;;;;;4955446;29;20098;-45
2022/07/02 04:35:13;;;;;;;17.92;5.57;;;24.70;99.90;;;;;;4955265;29;20110;-45
2022/07/02 04:37:40;;;;;;;19.15;4.85;;;24.70;99.90;;;;;;4955363;28;20051;-45
2022/07/02 04:40:06;;;;;;;16.00;4.50;;;24.70;99.90;;;;;;4955245;29;20035;-45
2022/07/02 04:42:32;;;;;;;16.80;5.32;;;24.70;99.90;;;;;;4955385;29;20039;-45
2022/07/02 04:44:58;;;;;;;17.40;5.80;;;24.70;99.90;;;;;;4955344;29;20325;-45
2022/07/02 04:47:24;;;;;;;31.35;6.82;;;24.70;99.90;;;;;;4954901;28;20038;-45
2022/07/02 04:49:49;;;;;;;14.68;5.05;;;24.70;99.90;;;;;;4955398;28;20385;-45
2022/07/02 04:52:15;;;;;;;18.42;5.28;;;24.70;99.90;;;;;;4955137;28;20038;-45
2022/07/02 04:54:41;;;;;;;19.77;4.95;;;24.70;99.90;;;;;;4954953;28;20035;-45
2022/07/02 04:57:07;;;;;;;17.65;5.30;;;24.70;99.90;;;;;;4955081;28;20031;-45
2022/07/02 04:59:33;;;;;;;21.40;4.85;;;24.60;99.90;;;;;;4954630;29;20106;-45
2022/07/02 05:01:59;;;;;;;16.10;4.60;;;24.70;99.90;;;;;;4954718;28;20052;-45
2022/07/02 05:04:25;;;;;;;16.45;4.15;;;24.70;99.90;;;;;;4954742;29;20031;-45
2022/07/02 05:06:51;;;;;;;15.50;5.35;;;24.70;99.90;;;;;;4969526;28;20039;-45
2022/07/02 05:09:17;;;;;;;12.75;4.13;;;24.60;99.90;;;;;;4954674;29;20035;-44
2022/07/02 05:11:42;;;;;;;12.13;4.10;;;24.70;99.90;;;;;;4954902;28;20044;-45
2022/07/02 05:14:08;;;;;;;13.55;4.28;;;24.70;99.90;;;;;;4954604;28;20031;-44
2022/07/02 05:16:34;;;;;;;16.48;4.60;;;24.70;99.90;;;;;;4954680;29;20031;-44
2022/07/02 05:19:00;;;;;;;18.88;6.60;;;24.70;99.90;;;;;;4953282;29;20032;-45
2022/07/02 05:21:25;;;;;;;22.77;4.82;;;24.70;99.90;;;;;;4954520;28;20151;-44
2022/07/02 05:23:51;;;;;;;12.10;3.78;;;24.70;99.90;;;;;;4954498;28;20101;-45
2022/07/02 05:26:19;;;;;;;14.73;4.32;;;24.70;99.90;;;;;;4954398;29;20027;-45
2022/07/02 05:28:45;;;;;;;;;;;24.70;99.90;;;;;;4954797;28;20035;-45
2022/07/02 05:31:10;;;;;;;11.65;4.30;;;24.70;99.90;;;;;;4954336;28;19906;-45
2022/07/02 05:33:36;;;;;;;116.90;16.17;;;24.70;99.90;;;;;;4954204;29;20035;-44
2022/07/02 05:36:02;;;;;;;15.02;4.82;;;24.70;99.90;;;;;;4954146;29;20384;-45
2022/07/02 05:38:28;;;;;;;16.35;4.47;;;24.70;99.90;;;;;;4954149;29;20020;-45
2022/07/02 05:40:53;;;;;;;20.27;5.03;;;24.70;99.90;;;;;;4954279;28;20035;-45
2022/07/02 05:43:19;;;;;;;14.32;5.30;;;24.70;99.90;;;;;;4953997;29;20039;-45
2022/07/02 05:45:45;;;;;;;22.38;5.63;;;24.80;99.90;;;;;;4954072;29;20469;-45
2022/07/02 05:48:10;;;;;;;17.30;6.55;;;24.80;99.90;;;;;;4954107;29;20035;-45
2022/07/02 05:50:36;;;;;;;14.60;5.43;;;24.90;99.90;;;;;;4954111;29;20026;-45
2022/07/02 05:53:02;;;;;;;10.27;4.57;;;24.90;99.90;;;;;;4953965;29;20494;-46
2022/07/02 05:55:28;;;;;;;13.18;4.05;;;24.90;99.90;;;;;;4953879;28;20038;-46
2022/07/02 05:57:53;;;;;;;14.27;4.45;;;25.00;99.90;;;;;;4954052;28;20129;-45
2022/07/02 06:00:19;;;;;;;9.02;4.18;;;25.00;99.90;;;;;;4952926;28;20043;-46
2022/07/02 06:02:45;;;;;;;9.60;3.45;;;25.10;99.90;;;;;;4953625;29;20349;-46
2022/07/02 06:07:55;;;;;;;13.55;4.03;;;25.20;99.90;;;;;;4953959;29;20147;-46
2022/07/02 06:10:20;;;;;;;12.60;4.50;;;25.20;99.90;;;;;;4953560;29;20143;-46
2022/07/02 06:12:48;;;;;;;10.23;3.85;;;25.20;99.90;;;;;;4953477;28;20035;-46
2022/07/02 06:15:14;;;;;;;;;;;25.30;99.90;;;;;;4953817;28;20114;-46
2022/07/02 06:17:40;;;;;;;14.30;5.03;;;25.30;99.90;;;;;;4953614;28;20344;-46
2022/07/02 06:20:06;;;;;;;13.75;4.90;;;25.30;99.90;;;;;;4953499;29;20038;-46
2022/07/02 06:22:32;;;;;;;10.05;4.05;;;25.30;99.90;;;;;;4953445;28;20118;-46
2022/07/02 06:24:58;;;;;;;10.10;4.80;;;25.30;99.90;;;;;;4953347;29;20110;-46
2022/07/02 06:27:23;;;;;;;8.18;4.20;;;25.40;99.90;;;;;;4953599;28;20031;-46
2022/07/02 06:29:49;;;;;;;13.77;4.88;;;25.40;99.90;;;;;;4953307;28;20023;-46
2022/07/02 06:32:16;;;;;;;10.50;4.60;;;25.50;99.90;;;;;;4953236;28;20476;-46
2022/07/02 06:34:43;;;;;;;6.20;3.47;;;25.50;99.90;;;;;;4953384;28;20027;-46
2022/07/02 06:37:09;;;;;;;7.32;4.15;;;25.50;99.90;;;;;;4953261;28;20016;-46
2022/07/02 06:39:35;;;;;;;11.75;3.75;;;25.50;99.90;;;;;;4953071;28;20059;-46
2022/07/02 06:42:18;;;;;;;9.27;4.35;;;25.50;99.90;;;;;;4953110;28;20066;-46
2022/07/02 06:44:46;;;;;;;9.93;4.57;;;25.50;99.90;;;;;;4953211;28;20058;-46
2022/07/02 06:47:12;;;;;;;;;;;25.50;99.90;;;;;;4968544;28;20028;-46
2022/07/02 06:49:38;;;;;;;6.95;3.33;;;25.60;99.90;;;;;;4953098;28;20293;-46
2022/07/02 06:52:04;;;;;;;7.00;3.30;;;25.60;99.90;;;;;;4953170;28;20035;-46
2022/07/02 06:54:30;;;;;;;7.75;4.18;;;25.60;99.90;;;;;;4953263;28;20035;-46
2022/07/02 06:56:56;;;;;;;8.68;4.13;;;25.70;99.90;;;;;;4952915;28;20446;-46
2022/07/02 06:59:22;;;;;;;8.18;3.78;;;25.60;99.90;;;;;;4952730;29;20027;-46
2022/07/02 07:01:47;;;;;;;9.85;3.50;;;25.70;99.90;;;;;;4952879;28;20466;-46
2022/07/02 07:04:14;;;;;;;11.18;3.92;;;25.70;99.90;;;;;;4952909;29;20516;-46
2022/07/02 07:06:44;;;;;;;5.13;3.42;;;25.70;99.90;;;;;;4952944;28;20042;-45
2022/07/02 07:09:09;;;;;;;7.35;4.03;;;25.70;99.90;;;;;;4952934;29;20378;-46
2022/07/02 07:11:35;;;;;;;9.30;3.20;;;25.70;99.90;;;;;;4954931;28;20054;-45
2022/07/02 07:14:02;;;;;;;10.02;3.53;;;25.70;99.90;;;;;;4956995;28;20054;-45
2022/07/02 07:16:27;;;;;;;5.80;3.42;;;25.70;99.90;;;;;;4956770;28;20449;-46
2022/07/02 07:21:19;;;;;;;9.02;3.80;;;25.70;99.90;;;;;;4956561;29;20027;-45
2022/07/02 07:23:44;;;;;;;8.48;4.00;;;25.70;99.90;;;;;;4955246;29;20072;-45
2022/07/02 07:26:10;;;;;;;10.15;3.88;;;25.80;99.90;;;;;;4956515;29;20526;-45
2022/07/02 07:28:36;;;;;;;6.68;3.65;;;25.80;99.90;;;;;;4956664;29;20072;-45
2022/07/02 07:31:02;;;;;;;10.77;3.90;;;25.80;99.90;;;;;;4956533;29;20042;-45
2022/07/02 07:33:27;;;;;;;8.77;3.40;;;25.80;99.90;;;;;;4956608;28;20031;-45
2022/07/02 07:35:53;;;;;;;14.32;4.57;;;25.80;99.90;;;;;;4956334;29;20441;-45
2022/07/02 07:38:19;;;;;;;22.17;7.55;;;25.90;99.90;;;;;;4956370;28;20032;-45
2022/07/02 07:40:45;;;;;;;16.40;5.57;;;25.90;99.90;;;;;;4956368;29;20393;-46
2022/07/02 07:43:10;;;;;;;12.95;3.95;;;25.90;99.90;;;;;;4956147;28;20461;-45
2022/07/02 07:45:36;;;;;;;11.05;3.60;;;25.90;99.90;;;;;;4955969;29;20067;-45
2022/07/02 07:48:02;;;;;;;12.85;3.70;;;25.90;99.90;;;;;;4956087;29;20027;-45
2022/07/02 07:50:28;;;;;;;14.65;4.70;;;25.90;99.90;;;;;;4956266;28;20031;-45
2022/07/02 07:52:54;;;;;;;8.38;3.30;;;25.90;99.90;;;;;;4956138;29;20024;-45
2022/07/02 07:55:20;;;;;;;10.18;3.25;;;25.90;99.90;;;;;;4955961;29;20144;-45
2022/07/02 07:57:45;;;;;;;5.07;2.85;;;25.90;99.90;;;;;;4956057;29;20098;-45
2022/07/02 08:00:11;;;;;;;10.77;3.55;;;25.80;99.90;;;;;;4955724;29;20082;-45
2022/07/02 08:02:37;;;;;;;12.82;3.90;;;25.80;99.90;;;;;;4954569;29;20039;-44
2022/07/02 08:05:03;;;;;;;14.23;3.33;;;25.80;99.90;;;;;;4955965;28;20034;-44
2022/07/02 08:07:36;;;;;;;15.48;4.32;;;25.80;99.90;;;;;;4956005;29;20055;-45
2022/07/02 08:10:01;;;;;;;8.88;4.03;;;25.70;99.90;;;;;;4956000;28;20024;-46
2022/07/02 08:12:27;;;;;;;12.23;3.08;;;25.80;99.90;;;;;;4955823;28;20027;-46
2022/07/02 08:14:53;;;;;;;7.15;3.53;;;25.80;99.90;;;;;;4955679;29;20137;-47
2022/07/02 08:17:19;;;;;;;11.88;3.53;;;25.80;99.90;;;;;;4955600;29;20621;-46
2022/07/02 08:19:44;;;;;;;11.68;2.80;;;25.80;99.90;;;;;;4955766;29;20110;-46
2022/07/02 08:22:10;;;;;;;11.00;3.35;;;25.80;99.90;;;;;;4955125;28;20028;-46
2022/07/02 08:24:36;;;;;;;7.85;3.10;;;25.80;99.90;;;;;;4955414;28;20306;-46
2022/07/02 08:27:02;;;;;;;8.05;3.33;;;25.80;99.90;;;;;;4955833;28;20539;-46
2022/07/02 08:29:27;;;;;;;9.30;3.58;;;25.90;99.90;;;;;;4955499;28;20485;-46
2022/07/02 08:31:53;;;;;;;10.40;3.03;;;25.90;99.90;;;;;;4970225;28;20068;-46
2022/07/02 08:34:19;;;;;;;8.65;3.97;;;25.90;99.90;;;;;;4955467;28;20103;-46
2022/07/02 08:36:45;;;;;;;7.03;3.63;;;25.90;99.90;;;;;;4955282;29;20107;-46
2022/07/02 08:39:11;;;;;;;9.55;3.53;;;25.90;99.90;;;;;;4955432;28;20031;-46
2022/07/02 08:41:37;;;;;;;9.15;2.95;;;25.90;99.90;;;;;;4955326;29;20389;-46
2022/07/02 08:44:05;;;;;;;10.27;3.15;;;25.90;99.90;;;;;;4955353;28;20035;-46
2022/07/02 08:46:32;;;;;;;11.90;4.80;;;26.00;99.90;;;;;;4955455;28;20034;-46
2022/07/02 08:49:00;;;;;;;10.27;3.28;;;26.00;99.90;;;;;;4955254;28;20118;-46
2022/07/02 08:51:27;;;;;;;6.30;3.53;;;26.00;99.90;;;;;;4955039;28;20164;-46
2022/07/02 08:53:52;;;;;;;12.07;4.47;;;25.90;99.90;;;;;;4955154;28;20035;-46
2022/07/02 08:56:20;;;;;;;10.20;3.47;;;25.90;99.90;;;;;;4955022;29;20090;-43
2022/07/02 08:58:46;;;;;;;;;;;25.90;99.90;;;;;;4954188;29;20027;-44
2022/07/02 09:01:13;;;;;;;5.65;2.70;;;26.00;99.90;;;;;;4954618;28;20330;-44
2022/07/02 09:03:40;;;;;;;10.18;2.92;;;25.90;99.90;;;;;;4954770;28;20106;-46
2022/07/02 09:06:06;;;;;;;10.93;4.10;;;25.90;99.90;;;;;;4955081;28;20027;-44
2022/07/02 09:08:33;;;;;;;12.60;3.10;;;26.00;99.90;;;;;;4954971;28;20023;-45
2022/07/02 09:11:02;;;;;;;12.30;3.97;;;26.00;99.90;;;;;;4954811;29;20672;-44
2022/07/02 09:13:29;;;;;;;5.97;3.10;;;25.90;99.90;;;;;;4954905;28;20046;-44
2022/07/02 09:15:55;;;;;;;10.13;2.97;;;25.90;99.90;;;;;;4954670;28;20028;-45
2022/07/02 09:18:21;;;;;;;11.18;3.13;;;26.00;99.90;;;;;;4954598;29;20046;-44
2022/07/02 09:20:47;;;;;;;13.73;2.97;;;26.00;99.90;;;;;;4954481;28;20035;-45
2022/07/02 09:23:22;;;;;;;10.27;3.03;;;26.00;99.90;;;;;;4954551;28;20452;-44
2022/07/02 09:25:49;;;;;;;12.13;3.53;;;26.00;99.90;;;;;;4954475;29;20365;-44
2022/07/02 09:28:17;;;;;;;8.02;2.78;;;26.00;99.90;;;;;;4954541;28;20530;-45
2022/07/02 09:30:43;;;;;;;9.00;3.13;;;26.00;99.90;;;;;;4954352;28;20038;-45
2022/07/02 09:33:29;;;;;;;7.77;3.10;;;26.00;99.90;;;;;;4954426;28;20024;-45
2022/07/02 09:35:59;;;;;;;14.10;4.20;;;26.00;99.90;;;;;;4953273;28;20031;-44
2022/07/02 09:38:26;;;;;;;7.90;3.60;;;26.00;99.90;;;;;;4954532;28;20082;-45
2022/07/02 09:40:57;;;;;;;14.85;2.58;;;26.00;99.90;;;;;;4954060;28;20504;-45
2022/07/02 09:43:25;;;;;;;13.10;2.85;;;26.00;99.90;;;;;;4954148;28;20389;-44
2022/07/02 09:45:51;;;;;;;12.52;3.80;;;26.10;99.90;;;;;;4954093;28;20158;-45
2022/07/02 09:48:17;;;;;;;8.48;2.75;;;26.10;99.90;;;;;;4954046;29;20078;-44
2022/07/02 09:50:43;;;;;;;27.67;12.00;;;26.10;99.90;;;;;;4953904;29;20058;-44
2022/07/02 09:53:12;;;;;;;16.35;4.22;;;26.10;99.90;;;;;;4953961;29;20102;-45
2022/07/02 09:55:38;;;;;;;13.90;3.75;;;26.10;99.90;;;;;;4954288;28;20023;-44
2022/07/02 09:58:05;;;;;;;11.25;4.07;;;26.10;99.90;;;;;;4954067;28;20031;-44
2022/07/02 10:00:34;;;;;;;20.63;7.47;;;26.10;99.90;;;;;;4953618;28;20048;-44
2022/07/02 10:03:01;;;;;;;12.30;4.47;;;26.10;99.90;;;;;;4953616;28;20047;-44
2022/07/02 10:05:33;;;;;;;12.15;3.97;;;26.20;99.90;;;;;;4953571;28;20065;-44
2022/07/02 10:08:04;;;;;;;12.45;3.45;;;26.20;99.90;;;;;;4953582;28;20514;-44
2022/07/02 10:13:01;;;;;;;13.50;4.47;;;26.20;99.90;;;;;;4953843;28;20019;-45
2022/07/02 10:15:29;;;;;;;15.80;6.40;;;26.20;99.90;;;;;;4953570;29;20393;-45
2022/07/02 10:17:56;;;;;;;12.95;3.70;;;26.20;99.90;;;;;;4953435;28;20081;-45
2022/07/02 10:20:23;;;;;;;12.38;3.50;;;26.30;99.90;;;;;;4953559;28;20341;-44
2022/07/02 10:22:49;;;;;;;11.70;3.47;;;26.30;99.90;;;;;;4953463;29;20031;-44
2022/07/02 10:25:18;;;;;;;10.73;3.60;;;26.30;99.90;;;;;;4953525;28;20031;-44
2022/07/02 10:27:46;;;;;;;9.88;2.70;;;26.40;99.90;;;;;;4953433;28;20436;-44
2022/07/02 10:30:15;;;;;;;19.27;9.63;;;26.40;99.90;;;;;;4953145;28;20062;-44
2022/07/02 10:33:06;;;;;;;15.88;7.72;;;26.40;99.90;;;;;;4953426;28;20027;-45
2022/07/02 10:35:34;;;;;;;15.40;5.20;;;26.40;99.90;;;;;;4953433;28;20035;-45
2022/07/02 10:38:01;;;;;;;11.30;3.33;;;26.50;99.90;;;;;;4953377;28;20098;-44
2022/07/02 10:40:27;;;;;;;9.27;3.88;;;26.50;99.90;;;;;;4953141;28;20035;-44
2022/07/02 10:42:57;;;;;;;11.02;3.80;;;26.50;99.90;;;;;;4953331;28;20406;-44
2022/07/02 10:45:24;;;;;;;11.30;4.38;;;26.50;99.90;;;;;;4952706;28;20073;-44
2022/07/02 10:48:00;;;;;;;16.55;5.30;;;26.60;99.90;;;;;;4953260;28;20389;-44
2022/07/02 10:50:46;;;;;;;21.02;5.05;;;26.50;99.90;;;;;;4953211;28;20082;-44
2022/07/02 10:53:24;;;;;;;17.90;4.45;;;26.60;99.90;;;;;;4952568;29;20549;-45
2022/07/02 10:55:58;;;;;;;15.80;3.85;;;26.60;99.90;;;;;;4952993;28;20059;-44
2022/07/02 10:58:32;;;;;;;13.30;3.70;;;26.60;99.90;;;;;;4953065;28;20027;-44
2022/07/02 11:01:18;;;;;;;10.88;3.45;;;26.60;99.90;;;;;;4952743;28;20102;-44
2022/07/02 11:03:56;;;;;;;11.70;3.45;;;26.60;99.90;;;;;;4950385;28;20055;-44
2022/07/02 11:06:27;;;;;;;12.90;3.28;;;26.70;99.90;;;;;;4951816;28;20035;-44
2022/07/02 11:09:03;;;;;;;12.13;3.50;;;26.70;99.90;;;;;;4953181;28;20509;-44
2022/07/02 11:11:30;;;;;;;12.90;3.40;;;26.70;99.90;;;;;;4951515;28;20071;-45
2022/07/02 11:14:08;;;;;;;11.50;4.25;;;26.70;99.90;;;;;;4961507;28;20523;-45
2022/07/02 11:16:37;;;;;;;9.57;4.53;;;26.80;99.90;;;;;;4949895;28;20063;-44
2022/07/02 11:19:05;;;;;;;9.88;3.05;;;26.90;99.90;;;;;;4952120;28;20054;-44
2022/07/02 11:21:31;;;;;;;10.55;3.33;;;26.90;99.90;;;;;;4951348;28;20020;-44
2022/07/02 11:23:57;;;;;;;11.20;3.28;;;26.80;99.90;;;;;;4944370;28;20530;-44
2022/07/02 11:26:26;;;;;;;14.00;2.40;;;26.90;99.90;;;;;;4942478;28;20062;-44
2022/07/02 11:28:53;;;;;;;9.75;2.88;;;26.90;99.90;;;;;;4962540;28;20030;-44
2022/07/02 11:31:21;;;;;;;10.32;3.00;;;27.00;99.90;;;;;;4970769;28;20023;-44
2022/07/02 11:33:54;;;;;;;6.75;3.08;;;27.00;99.90;;;;;;4969349;28;20476;-44
2022/07/02 11:36:21;;;;;;;12.43;2.70;;;27.00;99.90;;;;;;4952084;28;20031;-44
2022/07/02 11:38:49;;;;;;;15.05;3.50;;;27.00;99.90;;;;;;4951392;28;20035;-45
2022/07/02 11:41:35;;;;;;;12.90;2.88;;;27.10;99.90;;;;;;4953674;28;20075;-45
2022/07/02 11:44:21;;;;;;;11.32;7.15;;;27.10;99.90;;;;;;4955839;28;20149;-45
2022/07/02 11:46:50;;;;;;;18.45;6.22;;;27.10;99.90;;;;;;4954809;28;20046;-45
2022/07/02 11:49:19;;;;;;;14.77;5.00;;;27.20;99.90;;;;;;4941404;29;20496;-44
2022/07/02 11:51:46;;;;;;;13.10;4.50;;;27.20;99.90;;;;;;4948837;29;20031;-45
2022/07/02 11:54:13;;;;;;;9.70;3.92;;;27.20;99.90;;;;;;4951682;28;20027;-44
2022/07/02 11:56:40;;;;;;;13.05;4.25;;;27.20;99.90;;;;;;4947377;28;20486;-44
2022/07/02 11:59:11;;;;;;;;;;;27.30;99.90;;;;;;4964644;28;20027;-44
2022/07/02 12:01:39;;;;;;;8.88;2.38;;;27.30;99.90;;;;;;4954632;28;19934;-44
2022/07/02 12:04:08;;;;;;;10.05;3.63;;;27.30;99.90;;;;;;4954677;28;20485;-44
2022/07/02 12:06:39;;;;;;;10.95;3.20;;;27.30;99.90;;;;;;4964515;28;20038;-45
2022/07/02 12:09:08;;;;;;;10.23;3.90;;;27.30;99.90;;;;;;4962234;28;20341;-46
2022/07/02 12:11:36;;;;;;;12.88;5.55;;;27.30;99.90;;;;;;4955210;28;20019;-43
2022/07/02 12:14:03;;;;;;;14.15;2.72;;;27.30;99.90;;;;;;4954468;28;20110;-45
2022/07/02 12:16:29;;;;;;;15.75;3.10;;;27.30;99.90;;;;;;4954350;28;20027;-46
2022/07/02 12:19:02;;;;;;;14.30;3.70;;;27.30;99.90;;;;;;4954031;28;20099;-45
2022/07/02 12:21:49;;;;;;;10.38;3.80;;;27.30;99.90;;;;;;4957241;28;20023;-46
2022/07/02 12:24:35;;;;;;;14.07;8.85;;;27.30;99.90;;;;;;4960315;28;20126;-46
2022/07/02 12:27:06;;;;;;;18.45;6.13;;;27.40;99.90;;;;;;4950323;28;20031;-44
2022/07/02 12:29:53;;;;;;;14.40;8.93;;;27.40;99.90;;;;;;4955112;28;20019;-44
2022/07/02 12:32:26;;;;;;;17.17;9.50;;;27.50;99.90;;;;;;4953708;29;20119;-44
2022/07/02 12:34:54;;;;;;;15.38;6.30;;;27.40;99.90;;;;;;4953979;28;20027;-45
2022/07/02 12:37:30;;;;;;;10.68;4.28;;;27.40;99.90;;;;;;4961789;28;20054;-44
2022/07/02 12:39:58;;;;;;;12.18;4.15;;;27.40;99.90;;;;;;4948593;28;20353;-44
2022/07/02 12:42:24;;;;;;;13.63;3.78;;;27.50;99.90;;;;;;4952519;29;20057;-44
2022/07/02 12:44:55;;;;;;;14.83;6.03;;;27.50;99.90;;;;;;4951334;28;20034;-44
2022/07/02 12:47:27;;;;;;;18.55;4.53;;;27.50;99.90;;;;;;4953968;28;20066;-44
2022/07/02 12:49:58;;;;;;;12.02;3.78;;;27.60;99.90;;;;;;4953575;28;20042;-43
2022/07/02 12:52:27;;;;;;;12.32;3.20;;;27.70;99.90;;;;;;4953838;28;20035;-44